createdAt,value
2019-02-04T00:00:40.017Z,1020.9
2019-02-04T00:01:20.641Z,1020.87
2019-02-04T00:02:01.288Z,1020.92
2019-02-04T00:02:41.944Z,1020.93
2019-02-04T00:03:22.549Z,1020.92
2019-02-04T00:04:03.154Z,1020.92
2019-02-04T00:04:43.759Z,1020.95
2019-02-04T00:05:24.373Z,1020.89
2019-02-04T00:06:04.994Z,1020.87
2019-02-04T00:06:45.609Z,1020.88
2019-02-04T00:07:26.205Z,1020.87
2019-02-04T00:08:06.830Z,1020.88
2019-02-04T00:08:47.463Z,1020.88
2019-02-04T00:09:28.058Z,1020.85
2019-02-04T00:10:08.683Z,1020.84
2019-02-04T00:10:49.295Z,1020.84
2019-02-04T00:11:29.919Z,1020.83
2019-02-04T00:12:10.537Z,1020.75
2019-02-04T00:12:51.127Z,1020.84
2019-02-04T00:13:31.738Z,1020.85
2019-02-04T00:14:12.422Z,1020.75
2019-02-04T00:14:53.045Z,1020.8
2019-02-04T00:15:33.662Z,1020.75
2019-02-04T00:16:14.281Z,1020.82
2019-02-04T00:16:54.895Z,1020.78
2019-02-04T00:17:35.491Z,1020.82
2019-02-04T00:18:16.119Z,1020.86
2019-02-04T00:18:56.722Z,1020.91
2019-02-04T00:19:37.326Z,1020.91
2019-02-04T00:20:17.933Z,1020.86
2019-02-04T00:20:58.542Z,1020.89
2019-02-04T00:21:39.184Z,1020.87
2019-02-04T00:22:19.800Z,1020.91
2019-02-04T00:23:00.409Z,1020.86
2019-02-04T00:23:41.015Z,1020.94
2019-02-04T00:24:21.636Z,1020.99
2019-02-04T00:25:02.260Z,1020.97
2019-02-04T00:25:42.983Z,1021.04
2019-02-04T00:26:23.609Z,1021.06
2019-02-04T00:27:04.209Z,1021.05
2019-02-04T00:27:44.835Z,1021.08
2019-02-04T00:28:25.444Z,1021.04
2019-02-04T00:29:06.051Z,1021.02
2019-02-04T00:29:46.659Z,1021.02
2019-02-04T00:30:27.257Z,1020.92
2019-02-04T00:31:07.865Z,1020.95
2019-02-04T00:31:48.478Z,1021.04
2019-02-04T00:32:29.089Z,1021.09
2019-02-04T00:33:09.707Z,1021.14
2019-02-04T00:33:50.377Z,1021.14
2019-02-04T00:34:30.985Z,1021.16
2019-02-04T00:35:11.757Z,1021.16
2019-02-04T00:35:52.380Z,1021.13
2019-02-04T00:36:32.989Z,1021.13
2019-02-04T00:37:13.605Z,1021.07
2019-02-04T00:37:54.211Z,1021.14
2019-02-04T00:38:34.841Z,1021.18
2019-02-04T00:39:15.479Z,1021.22
2019-02-04T00:39:56.083Z,1021.14
2019-02-04T00:40:36.691Z,1021.13
2019-02-04T00:41:17.315Z,1021.11
2019-02-04T00:41:57.906Z,1021.12
2019-02-04T00:42:38.513Z,1021.12
2019-02-04T00:43:19.127Z,1021.09
2019-02-04T00:43:59.732Z,1021.14
2019-02-04T00:44:40.357Z,1021.15
2019-02-04T00:45:21.001Z,1021.18
2019-02-04T00:46:01.622Z,1021.2
2019-02-04T00:46:51.920Z,1021.11
2019-02-04T00:47:22.885Z,1021.2
2019-02-04T00:48:03.506Z,1021.09
2019-02-04T00:48:44.100Z,1021.19
2019-02-04T00:49:24.703Z,1021.2
2019-02-04T00:50:05.309Z,1021.19
2019-02-04T00:50:45.913Z,1021.19
2019-02-04T00:51:26.517Z,1021.16
2019-02-04T00:52:07.133Z,1021.18
2019-02-04T00:52:47.746Z,1021.13
2019-02-04T00:53:28.381Z,1021.17
2019-02-04T00:54:08.996Z,1021.19
2019-02-04T00:54:49.613Z,1021.19
2019-02-04T00:55:30.205Z,1021.25
2019-02-04T00:56:10.823Z,1021.18
2019-02-04T00:56:51.422Z,1021.18
2019-02-04T00:57:32.037Z,1021.11
2019-02-04T00:58:12.651Z,1021.13
2019-02-04T00:58:53.299Z,1021.12
2019-02-04T00:59:33.916Z,1021.09
2019-02-04T01:00:14.513Z,1021.08
2019-02-04T01:00:55.171Z,1021.08
2019-02-04T01:01:35.777Z,1021.09
2019-02-04T01:02:16.389Z,1021.06
2019-02-04T01:02:57.015Z,1021.02
2019-02-04T01:03:37.635Z,1021.05
2019-02-04T01:04:18.243Z,1021.04
2019-02-04T01:04:58.857Z,1021.07
2019-02-04T01:05:39.462Z,1021.04
2019-02-04T01:06:20.110Z,1020.99
2019-02-04T01:07:00.669Z,1021.01
2019-02-04T01:07:41.281Z,1021.06
2019-02-04T01:08:21.889Z,1021.01
2019-02-04T01:09:02.481Z,1021.02
2019-02-04T01:09:43.099Z,1021.04
2019-02-04T01:10:23.701Z,1021.02
2019-02-04T01:11:04.330Z,1021.03
2019-02-04T01:11:44.933Z,1021.05
2019-02-04T01:12:25.558Z,1021.1
2019-02-04T01:13:06.156Z,1021.05
2019-02-04T01:13:46.765Z,1021.04
2019-02-04T01:14:27.377Z,1021.06
2019-02-04T01:15:07.969Z,1021.08
2019-02-04T01:15:48.583Z,1021.01
2019-02-04T01:16:29.189Z,1020.95
2019-02-04T01:17:09.797Z,1020.96
2019-02-04T01:17:50.409Z,1020.98
2019-02-04T01:18:31.045Z,1020.97
2019-02-04T01:19:11.659Z,1020.97
2019-02-04T01:19:52.275Z,1020.93
2019-02-04T01:20:32.885Z,1021.03
2019-02-04T01:21:13.501Z,1021.04
2019-02-04T01:21:54.103Z,1021.04
2019-02-04T01:22:34.727Z,1021.1
2019-02-04T01:23:15.346Z,1021.06
2019-02-04T01:23:55.943Z,1021.06
2019-02-04T01:24:36.569Z,1021.05
2019-02-04T01:25:17.175Z,1021.05
2019-02-04T01:25:57.813Z,1021.05
2019-02-04T01:26:38.415Z,1021.07
2019-02-04T01:27:19.011Z,1021.07
2019-02-04T01:27:59.613Z,1021
2019-02-04T01:28:40.278Z,1021.02
2019-02-04T01:29:20.883Z,1021.07
2019-02-04T01:30:01.500Z,1021.06
2019-02-04T01:30:42.101Z,1021.04
2019-02-04T01:31:22.728Z,1021.05
2019-02-04T01:32:03.333Z,1021.09
2019-02-04T01:32:43.949Z,1021.09
2019-02-04T01:33:24.595Z,1021.13
2019-02-04T01:34:05.211Z,1021.09
2019-02-04T01:34:45.851Z,1021.09
2019-02-04T01:35:26.447Z,1021.2
2019-02-04T01:36:07.055Z,1021.23
2019-02-04T01:36:47.679Z,1021.18
2019-02-04T01:37:28.296Z,1021.17
2019-02-04T01:38:08.902Z,1021.18
2019-02-04T01:38:49.511Z,1021.19
2019-02-04T01:39:30.111Z,1021.16
2019-02-04T01:40:10.741Z,1021.17
2019-02-04T01:40:51.353Z,1021.16
2019-02-04T01:41:33.232Z,1021.16
2019-02-04T01:42:12.573Z,1021.19
2019-02-04T01:42:53.191Z,1021.22
2019-02-04T01:43:33.798Z,1021.24
2019-02-04T01:44:14.411Z,1021.27
2019-02-04T01:44:55.019Z,1021.3
2019-02-04T01:45:35.627Z,1021.33
2019-02-04T01:46:16.249Z,1021.32
2019-02-04T01:46:56.859Z,1021.34
2019-02-04T01:47:37.471Z,1021.28
2019-02-04T01:48:18.079Z,1021.27
2019-02-04T01:48:58.669Z,1021.28
2019-02-04T01:49:39.266Z,1021.31
2019-02-04T01:50:19.878Z,1021.32
2019-02-04T01:51:00.487Z,1021.32
2019-02-04T01:51:41.099Z,1021.34
2019-02-04T01:52:21.702Z,1021.41
2019-02-04T01:53:02.319Z,1021.38
2019-02-04T01:53:42.936Z,1021.37
2019-02-04T01:54:23.535Z,1021.37
2019-02-04T01:55:04.145Z,1021.37
2019-02-04T01:55:44.751Z,1021.41
2019-02-04T01:56:25.357Z,1021.41
2019-02-04T01:57:05.963Z,1021.37
2019-02-04T01:57:46.577Z,1021.38
2019-02-04T01:58:27.178Z,1021.38
2019-02-04T01:59:07.787Z,1021.34
2019-02-04T01:59:48.403Z,1021.31
2019-02-04T02:00:29.022Z,1021.39
2019-02-04T02:01:09.627Z,1021.38
2019-02-04T02:01:50.223Z,1021.43
2019-02-04T02:02:30.829Z,1021.41
2019-02-04T02:03:11.454Z,1021.46
2019-02-04T02:03:52.055Z,1021.44
2019-02-04T02:04:32.696Z,1021.41
2019-02-04T02:05:13.328Z,1021.4
2019-02-04T02:05:53.949Z,1021.4
2019-02-04T02:06:34.588Z,1021.35
2019-02-04T02:07:15.193Z,1021.33
2019-02-04T02:07:55.847Z,1021.32
2019-02-04T02:08:36.437Z,1021.28
2019-02-04T02:09:17.040Z,1021.29
2019-02-04T02:09:57.655Z,1021.3
2019-02-04T02:10:38.289Z,1021.25
2019-02-04T02:11:18.896Z,1021.3
2019-02-04T02:11:59.503Z,1021.27
2019-02-04T02:12:40.116Z,1021.27
2019-02-04T02:13:20.726Z,1021.28
2019-02-04T02:14:01.330Z,1021.28
2019-02-04T02:14:41.940Z,1021.3
2019-02-04T02:15:22.538Z,1021.36
2019-02-04T02:16:03.168Z,1021.31
2019-02-04T02:16:43.808Z,1021.34
2019-02-04T02:17:26.186Z,1021.35
2019-02-04T02:18:05.002Z,1021.44
2019-02-04T02:18:45.603Z,1021.43
2019-02-04T02:19:26.201Z,1021.46
2019-02-04T02:20:06.804Z,1021.47
2019-02-04T02:20:47.426Z,1021.5
2019-02-04T02:21:28.031Z,1021.51
2019-02-04T02:22:08.659Z,1021.49
2019-02-04T02:22:49.273Z,1021.58
2019-02-04T02:23:29.882Z,1021.56
2019-02-04T02:24:10.507Z,1021.58
2019-02-04T02:24:51.103Z,1021.57
2019-02-04T02:25:31.719Z,1021.57
2019-02-04T02:26:12.326Z,1021.61
2019-02-04T02:26:52.935Z,1021.61
2019-02-04T02:27:33.538Z,1021.66
2019-02-04T02:28:15.489Z,1021.65
2019-02-04T02:28:54.752Z,1021.64
2019-02-04T02:29:35.376Z,1021.66
2019-02-04T02:30:15.980Z,1021.66
2019-02-04T02:30:56.600Z,1021.65
2019-02-04T02:31:37.197Z,1021.66
2019-02-04T02:32:17.810Z,1021.68
2019-02-04T02:32:58.415Z,1021.63
2019-02-04T02:33:39.054Z,1021.6
2019-02-04T02:34:19.654Z,1021.61
2019-02-04T02:35:00.486Z,1021.65
2019-02-04T02:35:40.896Z,1021.7
2019-02-04T02:36:21.495Z,1021.67
2019-02-04T02:37:02.118Z,1021.73
2019-02-04T02:37:42.728Z,1021.69
2019-02-04T02:38:23.358Z,1021.71
2019-02-04T02:39:03.956Z,1021.73
2019-02-04T02:39:44.566Z,1021.69
2019-02-04T02:40:25.174Z,1021.72
2019-02-04T02:41:05.780Z,1021.74
2019-02-04T02:41:46.380Z,1021.77
2019-02-04T02:42:26.976Z,1021.75
2019-02-04T02:43:07.584Z,1021.7
2019-02-04T02:43:48.190Z,1021.7
2019-02-04T02:44:28.794Z,1021.71
2019-02-04T02:45:09.393Z,1021.68
2019-02-04T02:45:49.989Z,1021.68
2019-02-04T02:46:30.593Z,1021.64
2019-02-04T02:47:11.217Z,1021.65
2019-02-04T02:47:51.816Z,1021.63
2019-02-04T02:48:32.440Z,1021.62
2019-02-04T02:49:13.048Z,1021.63
2019-02-04T02:49:53.659Z,1021.66
2019-02-04T02:50:34.279Z,1021.68
2019-02-04T02:51:14.889Z,1021.69
2019-02-04T02:51:55.506Z,1021.75
2019-02-04T02:52:36.142Z,1021.73
2019-02-04T02:53:16.765Z,1021.71
2019-02-04T02:53:57.371Z,1021.74
2019-02-04T02:54:37.982Z,1021.74
2019-02-04T02:55:18.592Z,1021.75
2019-02-04T02:55:59.208Z,1021.74
2019-02-04T02:56:39.828Z,1021.76
2019-02-04T02:57:20.424Z,1021.73
2019-02-04T02:58:01.048Z,1021.74
2019-02-04T02:58:41.653Z,1021.7
2019-02-04T02:59:22.265Z,1021.76
2019-02-04T03:00:02.871Z,1021.72
2019-02-04T03:00:43.495Z,1021.74
2019-02-04T03:01:24.091Z,1021.76
2019-02-04T03:02:04.690Z,1021.72
2019-02-04T03:02:45.334Z,1021.7
2019-02-04T03:03:26.029Z,1021.71
2019-02-04T03:04:06.638Z,1021.7
2019-02-04T03:04:47.251Z,1021.7
2019-02-04T03:05:27.851Z,1021.71
2019-02-04T03:06:08.448Z,1021.71
2019-02-04T03:06:49.054Z,1021.75
2019-02-04T03:07:29.665Z,1021.68
2019-02-04T03:08:10.282Z,1021.68
2019-02-04T03:08:50.886Z,1021.65
2019-02-04T03:09:31.521Z,1021.71
2019-02-04T03:10:12.152Z,1021.73
2019-02-04T03:10:52.754Z,1021.69
2019-02-04T03:11:33.371Z,1021.71
2019-02-04T03:12:14.018Z,1021.72
2019-02-04T03:12:54.623Z,1021.71
2019-02-04T03:13:35.245Z,1021.76
2019-02-04T03:14:15.850Z,1021.73
2019-02-04T03:14:56.534Z,1021.77
2019-02-04T03:15:37.162Z,1021.72
2019-02-04T03:16:17.782Z,1021.75
2019-02-04T03:16:58.392Z,1021.77
2019-02-04T03:17:50.456Z,1021.77
2019-02-04T03:18:19.604Z,1021.8
2019-02-04T03:19:00.212Z,1021.82
2019-02-04T03:19:40.864Z,1021.85
2019-02-04T03:20:21.465Z,1021.83
2019-02-04T03:21:02.035Z,1021.85
2019-02-04T03:21:42.684Z,1021.93
2019-02-04T03:22:23.298Z,1021.91
2019-02-04T03:23:03.896Z,1021.92
2019-02-04T03:23:44.519Z,1021.98
2019-02-04T03:24:25.108Z,1021.95
2019-02-04T03:25:05.728Z,1022.05
2019-02-04T03:25:46.379Z,1022.07
2019-02-04T03:26:26.982Z,1022.11
2019-02-04T03:27:07.588Z,1022.11
2019-02-04T03:27:48.192Z,1022.11
2019-02-04T03:28:28.806Z,1022.09
2019-02-04T03:29:09.420Z,1022.06
2019-02-04T03:29:50.006Z,1022.11
2019-02-04T03:30:30.610Z,1022.12
2019-02-04T03:31:11.226Z,1022.11
2019-02-04T03:31:51.843Z,1022.07
2019-02-04T03:32:32.441Z,1022.04
2019-02-04T03:33:13.054Z,1022.03
2019-02-04T03:33:53.658Z,1022.05
2019-02-04T03:34:34.271Z,1022.03
2019-02-04T03:35:14.883Z,1022.04
2019-02-04T03:35:55.495Z,1022.03
2019-02-04T03:36:36.104Z,1022
2019-02-04T03:37:16.729Z,1022
2019-02-04T03:37:57.354Z,1021.95
2019-02-04T03:38:37.962Z,1022
2019-02-04T03:39:18.574Z,1022
2019-02-04T03:39:59.172Z,1021.96
2019-02-04T03:40:39.801Z,1021.96
2019-02-04T03:41:20.414Z,1021.97
2019-02-04T03:42:01.036Z,1021.93
2019-02-04T03:42:41.672Z,1021.92
2019-02-04T03:43:22.294Z,1021.94
2019-02-04T03:44:02.908Z,1021.95
2019-02-04T03:44:43.508Z,1021.93
2019-02-04T03:45:24.110Z,1021.94
2019-02-04T03:46:04.718Z,1021.89
2019-02-04T03:46:45.335Z,1021.9
2019-02-04T03:47:25.952Z,1021.89
2019-02-04T03:48:07.106Z,1021.95
2019-02-04T03:48:47.198Z,1021.92
2019-02-04T03:49:27.809Z,1021.93
2019-02-04T03:50:08.425Z,1021.95
2019-02-04T03:50:49.043Z,1021.94
2019-02-04T03:51:29.649Z,1021.98
2019-02-04T03:52:10.258Z,1021.98
2019-02-04T03:52:50.873Z,1021.97
2019-02-04T03:53:31.489Z,1021.97
2019-02-04T03:54:12.106Z,1021.97
2019-02-04T03:54:52.726Z,1021.97
2019-02-04T03:55:33.344Z,1021.99
2019-02-04T03:56:13.960Z,1021.92
2019-02-04T03:56:54.600Z,1021.92
2019-02-04T03:57:35.216Z,1021.95
2019-02-04T03:58:15.818Z,1021.96
2019-02-04T03:58:56.432Z,1021.95
2019-02-04T03:59:37.061Z,1021.95
2019-02-04T04:00:17.676Z,1021.97
2019-02-04T04:00:58.282Z,1022.01
2019-02-04T04:01:38.898Z,1022.01
2019-02-04T04:02:19.531Z,1022.01
2019-02-04T04:03:00.134Z,1022.03
2019-02-04T04:03:40.748Z,1022.01
2019-02-04T04:04:21.352Z,1022.03
2019-02-04T04:05:01.972Z,1022.02
2019-02-04T04:05:42.586Z,1021.99
2019-02-04T04:06:23.186Z,1021.97
2019-02-04T04:07:03.778Z,1021.98
2019-02-04T04:07:44.384Z,1021.97
2019-02-04T04:08:25.011Z,1021.98
2019-02-04T04:09:05.614Z,1021.98
2019-02-04T04:09:46.268Z,1021.98
2019-02-04T04:10:26.878Z,1022.03
2019-02-04T04:11:07.496Z,1022.01
2019-02-04T04:11:48.101Z,1022.12
2019-02-04T04:12:28.690Z,1022.08
2019-02-04T04:13:09.310Z,1022.08
2019-02-04T04:13:49.922Z,1022.11
2019-02-04T04:14:30.542Z,1022.05
2019-02-04T04:15:11.218Z,1022.04
2019-02-04T04:15:51.854Z,1022.07
2019-02-04T04:16:32.472Z,1022.06
2019-02-04T04:17:13.074Z,1022.03
2019-02-04T04:17:53.684Z,1022.07
2019-02-04T04:18:34.286Z,1022.06
2019-02-04T04:19:14.894Z,1022.02
2019-02-04T04:19:55.516Z,1022.04
2019-02-04T04:20:36.128Z,1022.02
2019-02-04T04:21:16.732Z,1022.03
2019-02-04T04:21:57.348Z,1021.98
2019-02-04T04:22:37.957Z,1021.98
2019-02-04T04:23:18.566Z,1021.98
2019-02-04T04:23:59.172Z,1021.95
2019-02-04T04:24:39.778Z,1021.92
2019-02-04T04:25:20.388Z,1021.97
2019-02-04T04:26:00.999Z,1021.96
2019-02-04T04:26:41.598Z,1021.96
2019-02-04T04:27:22.196Z,1021.93
2019-02-04T04:28:02.803Z,1021.88
2019-02-04T04:28:43.394Z,1021.89
2019-02-04T04:29:24.000Z,1021.87
2019-02-04T04:30:04.602Z,1021.87
2019-02-04T04:30:45.241Z,1021.85
2019-02-04T04:31:25.838Z,1021.88
2019-02-04T04:32:06.452Z,1021.94
2019-02-04T04:32:47.064Z,1021.91
2019-02-04T04:33:27.673Z,1021.96
2019-02-04T04:34:08.286Z,1021.99
2019-02-04T04:34:48.896Z,1021.95
2019-02-04T04:35:29.494Z,1021.97
2019-02-04T04:36:10.112Z,1021.98
2019-02-04T04:36:50.712Z,1021.99
2019-02-04T04:37:31.314Z,1022
2019-02-04T04:38:11.906Z,1022.04
2019-02-04T04:38:52.528Z,1022.07
2019-02-04T04:39:33.147Z,1022.08
2019-02-04T04:40:13.772Z,1022.04
2019-02-04T04:40:54.390Z,1022.01
2019-02-04T04:41:34.996Z,1022.06
2019-02-04T04:42:15.604Z,1022.07
2019-02-04T04:42:56.219Z,1022.04
2019-02-04T04:43:36.832Z,1022.07
2019-02-04T04:44:17.442Z,1022.07
2019-02-04T04:44:58.052Z,1022.02
2019-02-04T04:45:38.673Z,1021.98
2019-02-04T04:46:19.292Z,1022.01
2019-02-04T04:46:59.898Z,1021.97
2019-02-04T04:47:40.536Z,1021.98
2019-02-04T04:48:26.410Z,1021.95
2019-02-04T04:49:01.825Z,1022
2019-02-04T04:49:42.382Z,1021.99
2019-02-04T04:50:23.004Z,1021.99
2019-02-04T04:51:03.607Z,1021.96
2019-02-04T04:51:44.202Z,1021.93
2019-02-04T04:52:24.820Z,1021.94
2019-02-04T04:53:05.464Z,1021.92
2019-02-04T04:53:46.072Z,1021.88
2019-02-04T04:54:26.682Z,1021.86
2019-02-04T04:55:07.317Z,1021.88
2019-02-04T04:55:47.946Z,1021.86
2019-02-04T04:56:28.578Z,1021.87
2019-02-04T04:57:09.238Z,1021.86
2019-02-04T04:57:49.848Z,1021.87
2019-02-04T04:58:30.455Z,1021.9
2019-02-04T04:59:11.101Z,1021.85
2019-02-04T04:59:51.704Z,1021.84
2019-02-04T05:00:32.302Z,1021.85
2019-02-04T05:01:12.928Z,1021.82
2019-02-04T05:01:53.537Z,1021.84
2019-02-04T05:02:34.128Z,1021.76
2019-02-04T05:03:14.738Z,1021.79
2019-02-04T05:03:55.362Z,1021.78
2019-02-04T05:04:35.967Z,1021.76
2019-02-04T05:05:16.564Z,1021.74
2019-02-04T05:05:57.162Z,1021.76
2019-02-04T05:06:37.788Z,1021.75
2019-02-04T05:07:18.396Z,1021.77
2019-02-04T05:07:59.008Z,1021.74
2019-02-04T05:08:39.646Z,1021.78
2019-02-04T05:09:20.259Z,1021.74
2019-02-04T05:10:00.861Z,1021.72
2019-02-04T05:10:41.454Z,1021.76
2019-02-04T05:11:22.072Z,1021.78
2019-02-04T05:12:02.674Z,1021.76
2019-02-04T05:12:43.282Z,1021.79
2019-02-04T05:13:23.947Z,1021.83
2019-02-04T05:14:04.506Z,1021.85
2019-02-04T05:14:45.124Z,1021.84
2019-02-04T05:15:25.743Z,1021.85
2019-02-04T05:16:06.388Z,1021.82
2019-02-04T05:16:47.040Z,1021.8
2019-02-04T05:17:27.637Z,1021.86
2019-02-04T05:18:08.246Z,1021.87
2019-02-04T05:18:48.850Z,1021.85
2019-02-04T05:19:29.464Z,1021.92
2019-02-04T05:20:10.114Z,1021.93
2019-02-04T05:20:50.716Z,1021.96
2019-02-04T05:21:31.317Z,1021.96
2019-02-04T05:22:11.928Z,1021.96
2019-02-04T05:22:52.520Z,1021.96
2019-02-04T05:23:33.142Z,1021.92
2019-02-04T05:24:13.732Z,1021.92
2019-02-04T05:24:54.345Z,1021.89
2019-02-04T05:25:34.972Z,1021.85
2019-02-04T05:26:15.581Z,1021.86
2019-02-04T05:26:56.202Z,1021.88
2019-02-04T05:27:36.824Z,1021.87
2019-02-04T05:28:17.428Z,1021.84
2019-02-04T05:28:58.029Z,1021.85
2019-02-04T05:29:38.634Z,1021.84
2019-02-04T05:30:19.242Z,1021.88
2019-02-04T05:30:59.865Z,1021.87
2019-02-04T05:31:40.464Z,1021.86
2019-02-04T05:32:21.150Z,1021.86
2019-02-04T05:33:01.816Z,1021.87
2019-02-04T05:33:42.426Z,1021.89
2019-02-04T05:34:23.052Z,1021.89
2019-02-04T05:35:03.674Z,1021.86
2019-02-04T05:35:44.282Z,1021.88
2019-02-04T05:36:24.892Z,1021.87
2019-02-04T05:37:05.486Z,1021.85
2019-02-04T05:37:46.096Z,1021.9
2019-02-04T05:38:26.705Z,1021.88
2019-02-04T05:39:07.316Z,1021.9
2019-02-04T05:39:47.920Z,1021.86
2019-02-04T05:40:28.554Z,1021.85
2019-02-04T05:41:09.203Z,1021.86
2019-02-04T05:41:49.801Z,1021.89
2019-02-04T05:42:30.409Z,1021.9
2019-02-04T05:43:11.015Z,1021.91
2019-02-04T05:43:51.630Z,1021.91
2019-02-04T05:44:32.228Z,1021.89
2019-02-04T05:45:12.865Z,1021.84
2019-02-04T05:45:53.479Z,1021.85
2019-02-04T05:46:34.085Z,1021.86
2019-02-04T05:47:14.711Z,1021.87
2019-02-04T05:47:55.328Z,1021.86
2019-02-04T05:48:35.930Z,1021.82
2019-02-04T05:49:16.650Z,1021.81
2019-02-04T05:49:57.140Z,1021.79
2019-02-04T05:50:37.800Z,1021.8
2019-02-04T05:51:18.420Z,1021.79
2019-02-04T05:51:59.029Z,1021.78
2019-02-04T05:52:39.629Z,1021.74
2019-02-04T05:53:20.244Z,1021.72
2019-02-04T05:54:00.864Z,1021.74
2019-02-04T05:54:41.479Z,1021.71
2019-02-04T05:55:22.082Z,1021.73
2019-02-04T05:56:02.698Z,1021.69
2019-02-04T05:56:43.302Z,1021.72
2019-02-04T05:57:23.908Z,1021.75
2019-02-04T05:58:04.519Z,1021.71
2019-02-04T05:58:45.175Z,1021.72
2019-02-04T05:59:25.738Z,1021.69
2019-02-04T06:00:06.372Z,1021.65
2019-02-04T06:00:46.993Z,1021.65
2019-02-04T06:01:27.590Z,1021.66
2019-02-04T06:02:09.456Z,1021.66
2019-02-04T06:02:48.829Z,1021.66
2019-02-04T06:03:29.452Z,1021.65
2019-02-04T06:04:12.612Z,1021.7
2019-02-04T06:04:50.694Z,1021.7
2019-02-04T06:05:31.335Z,1021.72
2019-02-04T06:06:11.952Z,1021.73
2019-02-04T06:06:52.562Z,1021.79
2019-02-04T06:07:33.179Z,1021.83
2019-02-04T06:08:13.793Z,1021.81
2019-02-04T06:08:54.430Z,1021.82
2019-02-04T06:09:35.030Z,1021.85
2019-02-04T06:10:15.621Z,1021.87
2019-02-04T06:10:56.220Z,1021.91
2019-02-04T06:11:36.854Z,1021.91
2019-02-04T06:12:17.457Z,1021.95
2019-02-04T06:12:58.078Z,1021.99
2019-02-04T06:13:38.704Z,1022.01
2019-02-04T06:14:19.304Z,1022.05
2019-02-04T06:14:59.941Z,1022.04
2019-02-04T06:15:40.528Z,1022.12
2019-02-04T06:16:21.211Z,1022.14
2019-02-04T06:17:01.760Z,1022.09
2019-02-04T06:17:42.360Z,1022.07
2019-02-04T06:18:22.972Z,1022.12
2019-02-04T06:19:03.598Z,1022.13
2019-02-04T06:19:44.240Z,1022.14
2019-02-04T06:20:24.855Z,1022.15
2019-02-04T06:21:05.482Z,1022.2
2019-02-04T06:21:46.072Z,1022.24
2019-02-04T06:22:26.671Z,1022.27
2019-02-04T06:23:07.274Z,1022.29
2019-02-04T06:23:47.905Z,1022.3
2019-02-04T06:24:28.510Z,1022.31
2019-02-04T06:25:09.114Z,1022.34
2019-02-04T06:25:49.737Z,1022.37
2019-02-04T06:26:30.335Z,1022.37
2019-02-04T06:27:10.938Z,1022.42
2019-02-04T06:27:51.541Z,1022.45
2019-02-04T06:28:32.149Z,1022.45
2019-02-04T06:29:12.758Z,1022.45
2019-02-04T06:29:53.368Z,1022.48
2019-02-04T06:30:33.987Z,1022.5
2019-02-04T06:31:14.603Z,1022.51
2019-02-04T06:31:55.206Z,1022.53
2019-02-04T06:32:35.815Z,1022.56
2019-02-04T06:33:16.418Z,1022.6
2019-02-04T06:33:57.024Z,1022.62
2019-02-04T06:34:37.636Z,1022.6
2019-02-04T06:35:18.254Z,1022.65
2019-02-04T06:35:58.879Z,1022.67
2019-02-04T06:36:39.497Z,1022.7
2019-02-04T06:37:20.102Z,1022.7
2019-02-04T06:38:00.714Z,1022.74
2019-02-04T06:38:41.324Z,1022.74
2019-02-04T06:39:21.936Z,1022.79
2019-02-04T06:40:02.548Z,1022.84
2019-02-04T06:40:43.161Z,1022.81
2019-02-04T06:41:23.772Z,1022.82
2019-02-04T06:42:04.382Z,1022.82
2019-02-04T06:42:45.019Z,1022.84
2019-02-04T06:43:25.631Z,1022.81
2019-02-04T06:44:06.260Z,1022.78
2019-02-04T06:44:46.896Z,1022.77
2019-02-04T06:45:27.502Z,1022.78
2019-02-04T06:46:08.121Z,1022.75
2019-02-04T06:46:48.742Z,1022.74
2019-02-04T06:47:29.385Z,1022.74
2019-02-04T06:48:09.995Z,1022.73
2019-02-04T06:48:50.609Z,1022.75
2019-02-04T06:49:31.240Z,1022.76
2019-02-04T06:50:11.857Z,1022.7
2019-02-04T06:50:52.467Z,1022.69
2019-02-04T06:51:39.581Z,1022.7
2019-02-04T06:52:20.203Z,1022.7
2019-02-04T06:53:00.820Z,1022.66
2019-02-04T06:53:41.420Z,1022.68
2019-02-04T06:54:22.034Z,1022.67
2019-02-04T06:55:02.633Z,1022.67
2019-02-04T06:55:43.239Z,1022.67
2019-02-04T06:56:23.862Z,1022.64
2019-02-04T06:57:04.469Z,1022.62
2019-02-04T06:57:45.151Z,1022.64
2019-02-04T06:58:25.768Z,1022.63
2019-02-04T06:59:06.382Z,1022.67
2019-02-04T06:59:46.994Z,1022.62
2019-02-04T07:00:27.583Z,1022.64
2019-02-04T07:01:08.208Z,1022.64
2019-02-04T07:01:48.814Z,1022.6
2019-02-04T07:02:29.410Z,1022.58
2019-02-04T07:03:10.035Z,1022.59
2019-02-04T07:03:50.647Z,1022.59
2019-02-04T07:04:31.285Z,1022.55
2019-02-04T07:05:11.914Z,1022.57
2019-02-04T07:05:52.521Z,1022.53
2019-02-04T07:06:33.144Z,1022.54
2019-02-04T07:07:15.106Z,1022.52
2019-02-04T07:07:54.363Z,1022.56
2019-02-04T07:08:35.000Z,1022.55
2019-02-04T07:09:15.625Z,1022.57
2019-02-04T07:09:56.245Z,1022.6
2019-02-04T07:10:36.880Z,1022.6
2019-02-04T07:11:17.497Z,1022.61
2019-02-04T07:11:58.118Z,1022.61
2019-02-04T07:12:38.729Z,1022.64
2019-02-04T07:13:19.336Z,1022.61
2019-02-04T07:13:59.946Z,1022.62
2019-02-04T07:14:40.591Z,1022.59
2019-02-04T07:15:21.197Z,1022.62
2019-02-04T07:16:01.907Z,1022.64
2019-02-04T07:16:42.485Z,1022.64
2019-02-04T07:17:23.070Z,1022.66
2019-02-04T07:18:03.668Z,1022.63
2019-02-04T07:18:44.291Z,1022.65
2019-02-04T07:19:24.906Z,1022.61
2019-02-04T07:20:05.529Z,1022.61
2019-02-04T07:20:46.129Z,1022.61
2019-02-04T07:21:26.743Z,1022.64
2019-02-04T07:22:07.393Z,1022.66
2019-02-04T07:22:47.992Z,1022.65
2019-02-04T07:23:28.602Z,1022.66
2019-02-04T07:24:09.202Z,1022.66
2019-02-04T07:24:49.834Z,1022.65
2019-02-04T07:25:30.437Z,1022.62
2019-02-04T07:26:11.045Z,1022.62
2019-02-04T07:26:51.651Z,1022.61
2019-02-04T07:27:32.261Z,1022.6
2019-02-04T07:28:12.886Z,1022.65
2019-02-04T07:28:53.496Z,1022.64
2019-02-04T07:29:34.121Z,1022.64
2019-02-04T07:30:14.729Z,1022.61
2019-02-04T07:30:55.336Z,1022.61
2019-02-04T07:31:35.946Z,1022.61
2019-02-04T07:32:16.563Z,1022.54
2019-02-04T07:32:57.164Z,1022.53
2019-02-04T07:33:37.761Z,1022.57
2019-02-04T07:34:18.369Z,1022.57
2019-02-04T07:34:58.970Z,1022.56
2019-02-04T07:35:39.575Z,1022.59
2019-02-04T07:36:20.227Z,1022.61
2019-02-04T07:37:00.829Z,1022.61
2019-02-04T07:37:41.429Z,1022.62
2019-02-04T07:38:22.049Z,1022.67
2019-02-04T07:39:02.657Z,1022.66
2019-02-04T07:39:43.306Z,1022.65
2019-02-04T07:40:23.910Z,1022.66
2019-02-04T07:41:04.523Z,1022.71
2019-02-04T07:41:45.134Z,1022.74
2019-02-04T07:42:25.751Z,1022.77
2019-02-04T07:43:06.363Z,1022.81
2019-02-04T07:43:46.965Z,1022.81
2019-02-04T07:44:27.576Z,1022.85
2019-02-04T07:45:08.229Z,1022.9
2019-02-04T07:45:48.810Z,1022.93
2019-02-04T07:46:29.425Z,1022.98
2019-02-04T07:47:10.030Z,1022.98
2019-02-04T07:47:50.638Z,1023.02
2019-02-04T07:48:31.272Z,1023.04
2019-02-04T07:49:11.928Z,1023.02
2019-02-04T07:49:52.590Z,1023.02
2019-02-04T07:50:33.190Z,1023.02
2019-02-04T07:51:13.803Z,1023.02
2019-02-04T07:51:54.405Z,1023.08
2019-02-04T07:52:35.017Z,1023.11
2019-02-04T07:53:15.645Z,1023.11
2019-02-04T07:53:56.266Z,1023.1
2019-02-04T07:54:36.868Z,1023.12
2019-02-04T07:55:17.482Z,1023.13
2019-02-04T07:55:58.099Z,1023.12
2019-02-04T07:56:38.701Z,1023.14
2019-02-04T07:57:19.315Z,1023.06
2019-02-04T07:57:59.929Z,1023.09
2019-02-04T07:58:40.533Z,1023.09
2019-02-04T07:59:21.134Z,1023.13
2019-02-04T08:00:01.739Z,1023.11
2019-02-04T08:00:42.341Z,1023.17
2019-02-04T08:01:22.982Z,1023.16
2019-02-04T08:02:03.644Z,1023.19
2019-02-04T08:02:44.217Z,1023.17
2019-02-04T08:03:24.827Z,1023.18
2019-02-04T08:04:05.459Z,1023.19
2019-02-04T08:04:46.061Z,1023.18
2019-02-04T08:05:26.667Z,1023.18
2019-02-04T08:06:07.278Z,1023.18
2019-02-04T08:06:47.884Z,1023.15
2019-02-04T08:07:28.508Z,1023.15
2019-02-04T08:08:09.117Z,1023.12
2019-02-04T08:08:49.735Z,1023.15
2019-02-04T08:09:30.368Z,1023.14
2019-02-04T08:10:11.005Z,1023.19
2019-02-04T08:10:51.626Z,1023.2
2019-02-04T08:11:32.246Z,1023.14
2019-02-04T08:12:12.876Z,1023.17
2019-02-04T08:13:00.789Z,1023.14